createdAt,value
2023-04-09T00:00:30.841Z,9.100
2023-04-09T00:01:22.977Z,9.000
2023-04-09T00:02:42.260Z,9.000
2023-04-09T00:03:32.004Z,9.000
2023-04-09T00:04:25.555Z,9.000
2023-04-09T00:06:40.562Z,9.000
2023-04-09T00:07:33.606Z,9.000
2023-04-09T00:08:25.329Z,9.000
2023-04-09T00:09:19.659Z,9.000
2023-04-09T00:10:30.446Z,9.000
2023-04-09T00:11:29.682Z,9.000
2023-04-09T00:12:24.100Z,9.000
2023-04-09T00:13:44.191Z,8.900
2023-04-09T00:14:37.641Z,8.900
2023-04-09T00:15:31.248Z,8.900
2023-04-09T00:17:45.759Z,8.900
2023-04-09T00:18:44.718Z,8.900
2023-04-09T00:19:36.734Z,8.900
2023-04-09T00:21:00.322Z,8.900
2023-04-09T00:21:38.628Z,8.900
2023-04-09T00:22:47.801Z,8.800
2023-04-09T00:23:29.537Z,8.800
2023-04-09T00:24:46.460Z,8.800
2023-04-09T00:25:42.859Z,8.800
2023-04-09T00:26:30.714Z,8.800
2023-04-09T00:27:20.693Z,8.800
2023-04-09T00:28:56.099Z,8.800
2023-04-09T00:29:43.672Z,8.800
2023-04-09T00:30:31.586Z,8.800
2023-04-09T00:31:23.355Z,8.800
2023-04-09T00:32:24.279Z,8.800
2023-04-09T00:33:36.769Z,8.800
2023-04-09T00:34:23.301Z,8.800
2023-04-09T00:35:21.761Z,8.700
2023-04-09T00:36:43.614Z,8.700
2023-04-09T00:37:35.018Z,8.700
2023-04-09T00:38:28.265Z,8.700
2023-04-09T00:39:20.095Z,8.700
2023-04-09T00:40:42.677Z,8.600
2023-04-09T00:41:28.896Z,8.600
2023-04-09T00:42:24.652Z,8.600
2023-04-09T00:43:19.882Z,8.600
2023-04-09T00:44:36.409Z,8.600
2023-04-09T00:45:22.371Z,8.600
2023-04-09T00:46:25.309Z,8.600
2023-04-09T00:47:44.253Z,8.500
2023-04-09T00:49:24.816Z,8.500
2023-04-09T00:50:21.973Z,8.500
2023-04-09T00:51:41.876Z,8.500
2023-04-09T00:52:26.213Z,8.500
2023-04-09T00:53:29.177Z,8.500
2023-04-09T00:54:20.837Z,8.500
2023-04-09T00:55:32.078Z,8.500
2023-04-09T00:57:57.609Z,8.500
2023-04-09T00:59:28.261Z,8.400
2023-04-09T01:00:22.409Z,8.400
2023-04-09T01:01:26.602Z,8.400
2023-04-09T01:02:47.921Z,8.400
2023-04-09T01:03:35.979Z,8.300
2023-04-09T01:04:35.201Z,8.300
2023-04-09T01:09:25.184Z,8.300
2023-04-09T01:10:26.473Z,8.300
2023-04-09T01:11:35.072Z,8.300
2023-04-09T01:12:33.430Z,8.200
2023-04-09T01:13:57.661Z,8.200
2023-04-09T01:14:44.427Z,8.200
2023-04-09T01:19:52.909Z,8.200
2023-04-09T01:21:24.558Z,8.200
2023-04-09T01:22:38.541Z,8.100
2023-04-09T01:23:31.933Z,8.100
2023-04-09T01:24:24.911Z,8.100
2023-04-09T01:25:42.618Z,8.100
2023-04-09T01:26:37.354Z,8.100
2023-04-09T01:27:30.621Z,8.100
2023-04-09T01:28:24.910Z,8.100
2023-04-09T01:30:35.639Z,8.100
2023-04-09T01:31:28.203Z,8.100
2023-04-09T01:32:21.495Z,8.100
2023-04-09T01:33:56.893Z,8.100
2023-04-09T01:35:26.183Z,8.000
2023-04-09T01:36:44.856Z,8.000
2023-04-09T01:37:42.903Z,8.000
2023-04-09T01:38:32.865Z,8.000
2023-04-09T01:40:32.898Z,7.900
2023-04-09T01:41:37.160Z,7.900
2023-04-09T01:42:34.269Z,7.900
2023-04-09T01:43:21.258Z,7.900
2023-04-09T01:44:43.579Z,7.900
2023-04-09T01:45:24.439Z,7.900
2023-04-09T01:46:29.070Z,7.900
2023-04-09T01:47:21.593Z,7.900
2023-04-09T01:48:42.861Z,7.900
2023-04-09T01:49:37.691Z,7.900
2023-04-09T01:50:22.909Z,7.900
2023-04-09T01:51:20.803Z,7.900
2023-04-09T01:52:40.732Z,7.900
2023-04-09T01:53:33.834Z,7.900
2023-04-09T01:54:25.243Z,7.900
2023-04-09T01:55:47.945Z,7.900
2023-04-09T01:56:21.461Z,7.800
2023-04-09T01:58:24.448Z,7.800
2023-04-09T01:59:43.946Z,7.800
2023-04-09T02:00:37.449Z,7.800
2023-04-09T02:01:20.768Z,7.750
2023-04-09T02:02:24.956Z,7.700
2023-04-09T02:03:39.254Z,7.700
2023-04-09T02:04:28.294Z,7.700
2023-04-09T02:05:31.248Z,7.700
2023-04-09T02:06:22.962Z,7.700
2023-04-09T02:07:37.953Z,7.700
2023-04-09T02:08:23.621Z,7.600
2023-04-09T02:09:26.362Z,7.600
2023-04-09T02:10:47.173Z,7.500
2023-04-09T02:12:32.970Z,7.500
2023-04-09T02:13:21.739Z,7.500
2023-04-09T02:14:36.099Z,7.500
2023-04-09T02:15:26.547Z,7.400
2023-04-09T02:16:32.229Z,7.350
2023-04-09T02:17:25.809Z,7.300
2023-04-09T02:18:35.085Z,7.200
2023-04-09T02:19:21.707Z,7.200
2023-04-09T02:20:56.640Z,7.100
2023-04-09T02:22:29.787Z,7.100
2023-04-09T02:23:34.887Z,7.000
2023-04-09T02:24:27.065Z,7.000
2023-04-09T02:25:20.109Z,6.900
2023-04-09T02:26:24.752Z,6.900
2023-04-09T02:28:29.338Z,6.800
2023-04-09T02:29:20.703Z,6.800
2023-04-09T02:30:21.178Z,6.800
2023-04-09T02:31:31.889Z,6.800
2023-04-09T02:32:26.698Z,6.800
2023-04-09T02:33:28.365Z,6.800
2023-04-09T02:34:42.762Z,6.700
2023-04-09T02:35:31.868Z,6.700
2023-04-09T02:36:26.686Z,6.700
2023-04-09T02:37:23.550Z,6.600
2023-04-09T02:38:35.229Z,6.600
2023-04-09T02:39:29.999Z,6.550
2023-04-09T02:40:21.231Z,6.500
2023-04-09T02:41:22.183Z,6.500
2023-04-09T02:42:36.277Z,6.500
2023-04-09T02:44:22.649Z,6.400
2023-04-09T02:45:42.528Z,6.400
2023-04-09T02:46:32.235Z,6.400
2023-04-09T02:47:27.919Z,6.350
2023-04-09T02:48:23.286Z,6.300
2023-04-09T02:49:53.802Z,6.300
2023-04-09T02:51:28.346Z,6.200
2023-04-09T02:52:44.047Z,6.200
2023-04-09T02:53:32.539Z,6.200
2023-04-09T02:54:28.933Z,6.100
2023-04-09T02:55:25.663Z,6.100
2023-04-09T02:56:46.326Z,6.100
2023-04-09T02:57:38.773Z,6.100
2023-04-09T02:58:24.513Z,6.100
2023-04-09T02:59:23.650Z,6.100
2023-04-09T03:00:45.833Z,6.000
2023-04-09T03:01:35.027Z,6.000
2023-04-09T03:02:28.560Z,6.000
2023-04-09T03:03:51.046Z,6.000
2023-04-09T03:04:29.159Z,6.000
2023-04-09T03:05:36.400Z,6.000
2023-04-09T03:06:23.344Z,6.000
2023-04-09T03:07:21.595Z,6.000
2023-04-09T03:08:53.832Z,6.000
2023-04-09T03:09:33.948Z,6.000
2023-04-09T03:10:35.714Z,5.950
2023-04-09T03:12:00.001Z,5.900
2023-04-09T03:14:35.366Z,5.800
2023-04-09T03:15:31.708Z,5.800
2023-04-09T03:16:45.007Z,5.800
2023-04-09T03:17:26.853Z,5.800
2023-04-09T03:18:32.698Z,5.800
2023-04-09T03:19:47.674Z,5.800
2023-04-09T03:21:37.218Z,5.700
2023-04-09T03:22:34.684Z,5.700
2023-04-09T03:23:44.325Z,5.700
2023-04-09T03:24:29.498Z,5.700
2023-04-09T03:25:29.413Z,5.700
2023-04-09T03:26:30.240Z,5.700
2023-04-09T03:27:33.013Z,5.700
2023-04-09T03:28:53.045Z,5.700
2023-04-09T03:29:31.071Z,5.700
2023-04-09T03:30:50.993Z,5.600
2023-04-09T03:31:42.253Z,5.600
2023-04-09T03:32:30.524Z,5.600
2023-04-09T03:33:21.033Z,5.600
2023-04-09T03:34:35.669Z,5.600
2023-04-09T03:35:24.098Z,5.600
2023-04-09T03:36:30.327Z,5.500
2023-04-09T03:37:23.744Z,5.500
2023-04-09T03:38:33.157Z,5.500
2023-04-09T03:39:40.960Z,5.500
2023-04-09T03:40:28.153Z,5.500
2023-04-09T03:41:40.121Z,5.400
2023-04-09T03:42:29.189Z,5.400
2023-04-09T03:44:38.176Z,5.400
2023-04-09T03:45:23.985Z,5.400
2023-04-09T03:46:43.137Z,5.400
2023-04-09T03:47:33.137Z,5.400
2023-04-09T03:48:30.512Z,5.400
2023-04-09T03:49:34.737Z,5.400
2023-04-09T03:50:47.114Z,5.400
2023-04-09T03:51:38.284Z,5.300
2023-04-09T03:52:28.571Z,5.300
2023-04-09T03:53:35.184Z,5.300
2023-04-09T03:54:23.065Z,5.300
2023-04-09T03:55:31.248Z,5.300
2023-04-09T03:56:33.727Z,5.300
2023-04-09T03:57:48.860Z,5.300
2023-04-09T03:58:38.324Z,5.300
2023-04-09T03:59:29.205Z,5.300
2023-04-09T04:00:27.896Z,5.300
2023-04-09T04:01:38.902Z,5.300
2023-04-09T04:02:32.216Z,5.200
2023-04-09T04:03:23.890Z,5.200
2023-04-09T04:04:22.823Z,5.200
2023-04-09T04:05:40.940Z,5.200
2023-04-09T04:06:34.910Z,5.200
2023-04-09T04:08:41.446Z,5.100
2023-04-09T04:09:36.301Z,5.100
2023-04-09T04:10:27.097Z,5.100
2023-04-09T04:11:24.406Z,5.100
2023-04-09T04:12:35.642Z,5.100
2023-04-09T04:13:39.039Z,5.100
2023-04-09T04:14:32.937Z,5.100
2023-04-09T04:15:23.407Z,5.100
2023-04-09T04:16:41.077Z,5.100
2023-04-09T04:17:28.673Z,5.100
2023-04-09T04:18:25.523Z,5.050
2023-04-09T04:19:50.079Z,5.000
2023-04-09T04:20:43.327Z,5.000
2023-04-09T04:21:35.973Z,5.000
2023-04-09T04:23:20.126Z,5.000
2023-04-09T04:24:35.434Z,5.000
2023-04-09T04:25:29.920Z,5.000
2023-04-09T04:26:21.245Z,5.000
2023-04-09T04:27:48.339Z,5.000
2023-04-09T04:28:26.233Z,5.000
2023-04-09T04:29:24.805Z,5.000
2023-04-09T04:30:24.576Z,5.000
2023-04-09T04:31:40.091Z,5.000
2023-04-09T04:32:31.935Z,5.000
2023-04-09T04:33:25.408Z,4.950
2023-04-09T04:34:31.074Z,5.000
2023-04-09T04:37:30.849Z,5.000
2023-04-09T04:38:22.198Z,4.900
2023-04-09T04:39:22.279Z,4.900
2023-04-09T04:40:21.776Z,4.900
2023-04-09T04:41:21.961Z,4.900
2023-04-09T04:42:42.791Z,4.900
2023-04-09T04:43:30.809Z,4.900
2023-04-09T04:44:33.463Z,4.900
2023-04-09T04:45:26.968Z,4.900
2023-04-09T04:46:42.434Z,4.900
2023-04-09T04:47:24.865Z,4.900
2023-04-09T04:48:27.588Z,4.800
2023-04-09T04:49:47.683Z,4.800
2023-04-09T04:50:34.417Z,4.800
2023-04-09T04:51:19.960Z,4.800
2023-04-09T04:52:32.489Z,4.800
2023-04-09T04:53:25.224Z,4.800
2023-04-09T04:54:39.112Z,4.800
2023-04-09T04:55:30.321Z,4.800
2023-04-09T04:56:24.436Z,4.800
2023-04-09T04:57:38.408Z,4.800
2023-04-09T04:58:23.349Z,4.800
2023-04-09T04:59:36.505Z,4.800
2023-04-09T05:00:27.493Z,4.800
2023-04-09T05:01:20.934Z,4.800
2023-04-09T05:02:28.882Z,4.800
2023-04-09T05:03:27.803Z,4.800
2023-04-09T05:04:22.499Z,4.800
2023-04-09T05:05:26.885Z,4.800
2023-04-09T05:06:40.587Z,4.800
2023-04-09T05:07:32.460Z,4.800
2023-04-09T05:08:26.568Z,4.800
2023-04-09T05:09:22.855Z,4.800
2023-04-09T05:10:31.014Z,4.800
2023-04-09T05:11:23.796Z,4.800
2023-04-09T05:12:29.671Z,4.800
2023-04-09T05:13:27.957Z,4.800
2023-04-09T05:14:41.970Z,4.800
2023-04-09T05:15:29.686Z,4.800
2023-04-09T05:16:25.802Z,4.800
2023-04-09T05:17:36.790Z,4.800
2023-04-09T05:18:28.373Z,4.800
2023-04-09T05:19:22.941Z,4.800
2023-04-09T05:20:44.101Z,4.800
2023-04-09T05:21:55.186Z,4.800
2023-04-09T05:23:26.589Z,4.800
2023-04-09T05:24:40.598Z,4.800
2023-04-09T05:25:33.890Z,4.800
2023-04-09T05:26:24.826Z,4.850
2023-04-09T05:27:23.724Z,4.900
2023-04-09T05:28:45.803Z,4.900
2023-04-09T05:29:38.026Z,4.900
2023-04-09T05:30:33.128Z,4.900
2023-04-09T05:32:38.296Z,5.000
2023-04-09T05:33:29.922Z,5.000
2023-04-09T05:34:26.077Z,5.000
2023-04-09T05:35:19.178Z,5.100
2023-04-09T05:36:34.906Z,5.100
2023-04-09T05:37:36.313Z,5.100
2023-04-09T05:39:20.600Z,5.200
2023-04-09T05:40:34.313Z,5.200
2023-04-09T05:41:27.677Z,5.300
2023-04-09T05:42:40.046Z,5.300
2023-04-09T05:43:47.236Z,5.400
2023-04-09T05:44:37.590Z,5.400
2023-04-09T05:45:23.846Z,5.400
2023-04-09T05:46:24.729Z,5.400
2023-04-09T05:47:29.694Z,5.500
2023-04-09T05:48:30.792Z,5.500
2023-04-09T05:49:24.236Z,5.600
2023-04-09T05:50:55.529Z,5.700
2023-04-09T05:51:40.495Z,5.700
2023-04-09T05:52:24.037Z,5.700
2023-04-09T05:53:30.487Z,5.800
2023-04-09T05:54:22.299Z,5.800
2023-04-09T05:56:01.612Z,5.900
2023-04-09T05:56:20.546Z,5.900
2023-04-09T05:57:19.956Z,6.000
2023-04-09T05:58:28.645Z,6.100
2023-04-09T05:59:29.027Z,6.100
2023-04-09T06:00:33.349Z,6.100
2023-04-09T06:01:27.122Z,6.200
2023-04-09T06:02:41.913Z,6.200
2023-04-09T06:03:23.812Z,6.300
2023-04-09T06:04:24.779Z,6.300
2023-04-09T06:05:46.552Z,6.400
2023-04-09T06:06:33.741Z,6.400
2023-04-09T06:07:39.175Z,6.400
2023-04-09T06:08:30.141Z,6.500
2023-04-09T06:09:25.484Z,6.500
2023-04-09T06:10:27.214Z,6.600
2023-04-09T06:11:28.279Z,6.700
2023-04-09T06:12:23.240Z,6.750
2023-04-09T06:13:35.800Z,6.800
2023-04-09T06:14:22.463Z,6.900
2023-04-09T06:15:30.003Z,7.000
2023-04-09T06:16:28.858Z,7.000
2023-04-09T06:17:21.468Z,7.100
2023-04-09T06:18:33.596Z,7.200
2023-04-09T06:19:24.999Z,7.200
2023-04-09T06:20:20.390Z,7.300
2023-04-09T06:21:24.656Z,7.400
2023-04-09T06:22:41.148Z,7.500
2023-04-09T06:23:33.776Z,7.600
2023-04-09T06:24:20.670Z,7.600
2023-04-09T06:25:19.678Z,7.700
2023-04-09T06:26:30.814Z,7.700
2023-04-09T06:27:22.600Z,7.850
2023-04-09T06:28:28.081Z,7.900
2023-04-09T06:29:44.620Z,7.900
2023-04-09T06:30:26.440Z,8.000
2023-04-09T06:31:30.829Z,8.000
2023-04-09T06:32:24.156Z,8.100
2023-04-09T06:33:35.312Z,8.100
2023-04-09T06:34:22.610Z,8.100
2023-04-09T06:35:32.861Z,8.150
2023-04-09T06:36:30.026Z,8.200
2023-04-09T06:37:22.455Z,8.300
2023-04-09T06:38:21.754Z,8.300
2023-04-09T06:39:27.566Z,8.400
2023-04-09T06:41:23.360Z,8.400
2023-04-09T06:42:24.870Z,8.500
2023-04-09T06:43:21.514Z,8.500
2023-04-09T06:44:27.215Z,8.500
2023-04-09T06:45:20.265Z,8.500
2023-04-09T06:46:30.493Z,8.600
2023-04-09T06:48:18.934Z,8.600
2023-04-09T06:49:27.333Z,8.700
2023-04-09T06:50:20.305Z,8.800
2023-04-09T06:51:26.470Z,8.800
2023-04-09T06:52:20.723Z,8.900
2023-04-09T06:53:32.231Z,8.900
2023-04-09T06:56:32.641Z,8.900
2023-04-09T06:57:24.783Z,8.900
2023-04-09T06:58:25.424Z,8.950
2023-04-09T06:59:35.859Z,8.900
2023-04-09T07:00:30.417Z,9.000
2023-04-09T07:01:22.613Z,9.000
2023-04-09T07:02:24.746Z,9.000
2023-04-09T07:04:30.946Z,9.000
2023-04-09T07:05:22.444Z,9.100
2023-04-09T07:06:21.422Z,9.100
2023-04-09T07:07:30.637Z,9.100
2023-04-09T07:08:26.650Z,9.100
2023-04-09T07:09:23.673Z,9.000
2023-04-09T07:10:22.046Z,9.000
2023-04-09T07:11:29.808Z,8.900
2023-04-09T07:12:20.694Z,9.000
2023-04-09T07:13:22.806Z,9.150
2023-04-09T07:15:26.334Z,9.000
2023-04-09T07:17:27.446Z,9.000
2023-04-09T07:18:29.277Z,9.000
2023-04-09T07:19:24.595Z,9.000
2023-04-09T07:20:23.443Z,9.000
2023-04-09T07:21:32.037Z,9.000
2023-04-09T07:22:23.176Z,9.100
2023-04-09T07:23:23.168Z,9.100
2023-04-09T07:24:34.554Z,9.200
2023-04-09T07:25:23.603Z,9.200
2023-04-09T07:26:24.613Z,9.300
2023-04-09T07:27:20.783Z,9.400
2023-04-09T07:28:31.786Z,9.550
2023-04-09T07:29:28.979Z,9.700
2023-04-09T07:30:23.161Z,9.800
2023-04-09T07:31:36.019Z,9.900
2023-04-09T07:33:20.406Z,10.000
2023-04-09T07:35:25.772Z,10.000
2023-04-09T07:36:27.294Z,10.050
2023-04-09T07:37:23.900Z,10.000
2023-04-09T07:38:32.609Z,9.900
2023-04-09T07:39:26.664Z,10.000
2023-04-09T07:40:25.225Z,10.100
2023-04-09T07:41:20.630Z,10.300
2023-04-09T07:42:28.259Z,10.300
2023-04-09T07:43:21.436Z,10.150
2023-04-09T07:44:23.640Z,10.100
2023-04-09T07:45:34.338Z,10.200
2023-04-09T07:46:29.899Z,10.300
2023-04-09T07:47:25.838Z,10.300
2023-04-09T07:48:22.142Z,10.400
2023-04-09T07:50:27.902Z,10.400
2023-04-09T07:51:22.596Z,10.450
2023-04-09T07:52:32.612Z,10.600
2023-04-09T07:53:30.707Z,10.700
2023-04-09T07:54:24.878Z,10.700
2023-04-09T07:55:20.703Z,10.800
2023-04-09T07:56:28.239Z,10.800
2023-04-09T07:57:27.834Z,10.900
2023-04-09T07:58:24.335Z,11.050
2023-04-09T07:59:20.422Z,11.100
2023-04-09T08:00:28.812Z,10.900
2023-04-09T08:01:24.692Z,11.000
2023-04-09T08:02:20.937Z,11.100
2023-04-09T08:03:23.265Z,11.200
2023-04-09T08:04:26.795Z,11.300
2023-04-09T08:05:24.646Z,11.400
2023-04-09T08:06:24.610Z,11.500
2023-04-09T08:07:24.602Z,11.400
2023-04-09T08:08:24.374Z,11.500
2023-04-09T08:09:20.716Z,11.700
2023-04-09T08:10:27.547Z,11.700
2023-04-09T08:11:21.554Z,11.700
2023-04-09T08:12:24.415Z,11.700
2023-04-09T08:13:22.097Z,11.700
2023-04-09T08:14:30.431Z,11.950
2023-04-09T08:15:24.595Z,11.800
2023-04-09T08:16:22.389Z,11.700
2023-04-09T08:17:21.174Z,11.600
2023-04-09T08:18:21.384Z,11.500
2023-04-09T08:19:23.514Z,11.700
2023-04-09T08:20:30.681Z,11.900
2023-04-09T08:21:29.221Z,12.000
2023-04-09T08:23:20.543Z,11.900
2023-04-09T08:24:26.309Z,12.000
2023-04-09T08:25:30.582Z,12.100
2023-04-09T08:27:33.513Z,12.300
2023-04-09T08:28:23.817Z,12.100
2023-04-09T08:29:41.128Z,11.950
2023-04-09T08:30:20.846Z,11.800
2023-04-09T08:31:28.164Z,11.900
2023-04-09T08:33:22.476Z,11.900
2023-04-09T08:34:34.658Z,12.200
2023-04-09T08:35:24.716Z,12.400
2023-04-09T08:36:19.536Z,12.500
2023-04-09T08:37:20.651Z,12.300
2023-04-09T08:38:30.925Z,12.400
2023-04-09T08:39:28.110Z,12.400
2023-04-09T08:40:22.646Z,12.500
2023-04-09T08:41:24.492Z,12.300
2023-04-09T08:42:24.820Z,12.500
2023-04-09T08:43:37.284Z,12.600
2023-04-09T08:44:20.756Z,12.450
2023-04-09T08:45:32.958Z,12.400
2023-04-09T08:46:20.452Z,12.600
2023-04-09T08:47:22.614Z,12.600
2023-04-09T08:48:27.650Z,12.600
2023-04-09T08:49:20.143Z,12.500
2023-04-09T08:50:28.731Z,12.600
2023-04-09T08:52:25.570Z,12.750
2023-04-09T08:53:25.048Z,12.400
2023-04-09T08:54:23.173Z,12.500
2023-04-09T08:55:32.822Z,12.700
2023-04-09T08:56:24.562Z,12.700
2023-04-09T08:57:24.853Z,12.600
2023-04-09T08:59:31.123Z,12.750
2023-04-09T09:00:26.997Z,12.800
2023-04-09T09:01:25.640Z,13.000
2023-04-09T09:02:34.054Z,13.100
2023-04-09T09:03:21.906Z,12.900
2023-04-09T09:06:22.810Z,13.400
2023-04-09T09:07:29.064Z,13.500
2023-04-09T09:08:22.671Z,13.600
2023-04-09T09:09:27.457Z,13.600
2023-04-09T09:11:25.958Z,13.400
2023-04-09T09:13:26.671Z,13.700
2023-04-09T09:14:27.332Z,13.800
2023-04-09T09:15:22.917Z,13.800
2023-04-09T09:16:32.646Z,13.800
2023-04-09T09:17:30.535Z,13.800
2023-04-09T09:18:26.887Z,13.800
2023-04-09T09:19:23.769Z,13.800
2023-04-09T09:21:23.975Z,13.900
2023-04-09T09:22:23.674Z,13.950
2023-04-09T09:23:34.745Z,14.000
2023-04-09T09:24:28.803Z,13.800
2023-04-09T09:25:24.489Z,13.700
2023-04-09T09:26:23.426Z,13.400
2023-04-09T09:27:20.293Z,13.300
2023-04-09T09:28:41.531Z,13.500
2023-04-09T09:29:24.924Z,13.700
2023-04-09T09:30:33.755Z,13.750
2023-04-09T09:31:21.238Z,13.900
2023-04-09T09:32:24.721Z,14.000
2023-04-09T09:33:20.927Z,14.100
2023-04-09T09:34:25.985Z,14.200
2023-04-09T09:35:32.244Z,14.200
2023-04-09T09:36:23.838Z,14.300
2023-04-09T09:37:27.909Z,14.400
2023-04-09T09:38:30.907Z,14.500
2023-04-09T09:39:24.774Z,14.500
2023-04-09T09:40:23.950Z,14.600
2023-04-09T09:41:30.994Z,14.500
2023-04-09T09:42:24.093Z,14.400
2023-04-09T09:43:22.740Z,14.400
2023-04-09T09:44:20.853Z,14.600
2023-04-09T09:45:29.035Z,14.700
2023-04-09T09:46:26.407Z,14.800
2023-04-09T09:47:20.696Z,14.900
2023-04-09T09:48:23.104Z,14.800
2023-04-09T09:49:28.367Z,14.500
2023-04-09T09:50:22.757Z,14.500
2023-04-09T09:51:22.197Z,14.300
2023-04-09T09:52:29.021Z,14.250
2023-04-09T09:53:25.139Z,14.200
2023-04-09T09:54:20.409Z,14.300
2023-04-09T09:55:30.900Z,14.100
2023-04-09T09:56:27.461Z,14.000
2023-04-09T09:57:24.357Z,13.900
2023-04-09T09:59:23.455Z,13.800
2023-04-09T10:00:25.724Z,14.050
2023-04-09T10:01:20.650Z,14.200
2023-04-09T10:02:31.087Z,14.400
2023-04-09T10:04:23.463Z,14.600
2023-04-09T10:05:21.905Z,14.500
2023-04-09T10:06:25.715Z,14.600
2023-04-09T10:07:24.955Z,14.700
2023-04-09T10:08:23.381Z,14.650
2023-04-09T10:09:21.936Z,14.900
2023-04-09T10:10:27.478Z,15.000
2023-04-09T10:11:24.756Z,15.100
2023-04-09T10:12:25.049Z,15.100
2023-04-09T10:13:30.583Z,15.200
2023-04-09T10:14:25.069Z,15.100
2023-04-09T10:15:21.047Z,15.050
2023-04-09T10:16:23.658Z,15.000
2023-04-09T10:17:26.776Z,14.900
2023-04-09T10:18:23.651Z,15.100
2023-04-09T10:19:30.234Z,15.200
2023-04-09T10:20:22.611Z,15.300
2023-04-09T10:22:22.154Z,15.400
2023-04-09T10:23:30.736Z,15.350
2023-04-09T10:24:26.839Z,15.100
2023-04-09T10:25:24.902Z,15.200
2023-04-09T10:26:37.419Z,15.200
2023-04-09T10:28:25.492Z,15.200
2023-04-09T10:29:24.123Z,15.300
2023-04-09T10:30:31.104Z,15.200
2023-04-09T10:32:25.470Z,15.000
2023-04-09T10:33:24.113Z,15.000
2023-04-09T10:34:30.267Z,15.200
2023-04-09T10:36:20.910Z,15.400
2023-04-09T10:37:22.850Z,15.600
2023-04-09T10:38:21.012Z,15.750
2023-04-09T10:39:22.871Z,15.900
2023-04-09T10:40:34.970Z,15.900
2023-04-09T10:41:29.310Z,16.000
2023-04-09T10:42:29.171Z,16.000
2023-04-09T10:44:21.218Z,15.700
2023-04-09T10:45:26.652Z,15.600
2023-04-09T10:46:23.538Z,15.750
2023-04-09T10:47:33.054Z,15.900
2023-04-09T10:48:30.528Z,15.800
2023-04-09T10:49:25.454Z,15.900
2023-04-09T10:50:24.216Z,15.900
2023-04-09T10:51:33.416Z,15.700
2023-04-09T10:52:22.746Z,15.800
2023-04-09T10:53:25.437Z,15.500
2023-04-09T10:54:35.688Z,15.600
2023-04-09T10:55:29.001Z,15.800
2023-04-09T10:56:22.710Z,15.800
2023-04-09T10:57:20.824Z,15.300
2023-04-09T10:58:21.540Z,15.500
2023-04-09T10:59:27.140Z,15.700
2023-04-09T11:00:22.867Z,15.800
2023-04-09T11:01:24.629Z,15.900
2023-04-09T11:02:31.287Z,16.000
2023-04-09T11:03:25.202Z,15.800
2023-04-09T11:04:20.696Z,15.900
2023-04-09T11:05:30.912Z,15.900
2023-04-09T11:07:22.902Z,16.100
2023-04-09T11:08:34.655Z,16.200
2023-04-09T11:09:29.694Z,16.300
2023-04-09T11:10:27.583Z,16.300
2023-04-09T11:11:21.096Z,16.300
2023-04-09T11:12:21.760Z,16.300
2023-04-09T11:13:24.844Z,16.300
2023-04-09T11:14:23.346Z,16.300
2023-04-09T11:15:19.654Z,16.400
2023-04-09T11:16:30.131Z,16.300
2023-04-09T11:17:25.566Z,16.400
2023-04-09T11:18:24.801Z,16.400
2023-04-09T11:19:33.009Z,16.400
2023-04-09T11:20:27.370Z,16.500
2023-04-09T11:22:23.894Z,16.500
2023-04-09T11:23:28.861Z,16.600
2023-04-09T11:24:26.804Z,16.600
2023-04-09T11:25:21.043Z,16.600
2023-04-09T11:26:30.818Z,16.700
2023-04-09T11:27:26.791Z,16.600
2023-04-09T11:28:24.579Z,16.100
2023-04-09T11:30:22.221Z,15.800
2023-04-09T11:31:25.040Z,15.900
2023-04-09T11:32:22.767Z,16.100
2023-04-09T11:33:30.811Z,16.300
2023-04-09T11:34:28.637Z,16.400
2023-04-09T11:35:23.009Z,16.500
2023-04-09T11:36:22.780Z,16.500
2023-04-09T11:37:25.090Z,16.400
2023-04-09T11:38:25.455Z,16.500
2023-04-09T11:39:21.187Z,16.550
2023-04-09T11:40:30.848Z,16.500
2023-04-09T11:41:28.220Z,16.500
2023-04-09T11:42:22.949Z,16.500
2023-04-09T11:43:26.493Z,16.400
2023-04-09T11:45:24.822Z,16.300
2023-04-09T11:46:20.938Z,16.550
2023-04-09T11:47:33.025Z,16.600
2023-04-09T11:48:26.721Z,16.700
2023-04-09T11:49:24.941Z,16.500
2023-04-09T11:51:22.825Z,16.700
2023-04-09T11:52:25.789Z,16.600
2023-04-09T11:53:22.300Z,16.600
2023-04-09T11:54:31.149Z,16.750
2023-04-09T11:55:28.358Z,16.800
2023-04-09T11:56:22.854Z,16.900
2023-04-09T11:57:22.569Z,16.900
2023-04-09T11:58:29.806Z,17.000
2023-04-09T11:59:21.376Z,17.000
2023-04-09T12:00:22.999Z,17.000
2023-04-09T12:01:23.156Z,17.100
2023-04-09T12:02:29.273Z,17.200
2023-04-09T12:03:22.946Z,17.200
2023-04-09T12:04:33.033Z,17.000
2023-04-09T12:05:32.308Z,17.000
2023-04-09T12:07:22.505Z,17.100
2023-04-09T12:08:21.528Z,17.100
2023-04-09T12:09:27.817Z,17.100
2023-04-09T12:10:22.638Z,17.100
2023-04-09T12:11:34.341Z,17.200
2023-04-09T12:12:21.141Z,17.200
2023-04-09T12:14:22.851Z,17.300
2023-04-09T12:16:26.996Z,17.300
2023-04-09T12:17:24.836Z,17.300
2023-04-09T12:18:34.684Z,17.400
2023-04-09T12:19:25.608Z,17.400
2023-04-09T12:20:27.741Z,17.400
2023-04-09T12:21:21.219Z,17.400
2023-04-09T12:22:27.909Z,17.300
2023-04-09T12:23:20.785Z,17.300
2023-04-09T12:24:23.081Z,17.450
2023-04-09T12:25:19.721Z,17.600
2023-04-09T12:26:29.549Z,17.700
2023-04-09T12:27:26.379Z,17.500
2023-04-09T12:28:21.110Z,17.600
2023-04-09T12:29:23.050Z,17.700
2023-04-09T12:30:27.095Z,17.900
2023-04-09T12:31:24.716Z,17.900
2023-04-09T12:32:32.829Z,17.900
2023-04-09T12:33:29.877Z,17.900
2023-04-09T12:34:26.049Z,18.000
2023-04-09T12:35:21.928Z,17.800
2023-04-09T12:36:27.767Z,18.000
2023-04-09T12:37:20.136Z,18.100
2023-04-09T12:38:22.945Z,18.000
2023-04-09T12:39:34.381Z,18.000
2023-04-09T12:40:31.327Z,18.150
2023-04-09T12:41:20.914Z,18.200
2023-04-09T12:42:24.066Z,18.300
2023-04-09T12:43:33.003Z,18.400
2023-04-09T12:45:27.529Z,18.400
2023-04-09T12:46:33.186Z,18.400
2023-04-09T12:47:30.525Z,18.450
2023-04-09T12:48:26.938Z,18.400
2023-04-09T12:49:21.049Z,18.400
2023-04-09T12:50:31.497Z,18.400
2023-04-09T12:51:32.889Z,18.400
2023-04-09T12:53:23.427Z,18.400
2023-04-09T12:54:30.256Z,18.400
2023-04-09T12:55:25.975Z,18.400
2023-04-09T12:56:21.473Z,18.500
2023-04-09T12:57:32.696Z,18.600
2023-04-09T12:58:26.718Z,18.800
2023-04-09T12:59:27.715Z,18.700
2023-04-09T13:01:19.840Z,18.600
2023-04-09T13:02:24.968Z,18.600
2023-04-09T13:03:21.044Z,18.700
2023-04-09T13:04:31.175Z,18.600
2023-04-09T13:05:30.521Z,18.700
2023-04-09T13:06:23.837Z,18.700
2023-04-09T13:07:24.161Z,18.500
2023-04-09T13:08:30.755Z,18.400
2023-04-09T13:09:25.062Z,18.500
2023-04-09T13:10:20.757Z,18.400
2023-04-09T13:11:33.683Z,18.300
2023-04-09T13:12:28.180Z,18.100
2023-04-09T13:13:22.926Z,18.200
2023-04-09T13:15:20.260Z,18.000
2023-04-09T13:16:21.045Z,18.100
2023-04-09T13:17:23.341Z,18.100
2023-04-09T13:18:30.934Z,18.500
2023-04-09T13:19:29.100Z,18.800
2023-04-09T13:20:23.574Z,18.900
2023-04-09T13:21:33.066Z,19.000
2023-04-09T13:22:24.345Z,19.000
2023-04-09T13:23:24.599Z,18.900
2023-04-09T13:24:22.651Z,19.100
2023-04-09T13:25:33.478Z,19.050
2023-04-09T13:26:27.091Z,18.900
2023-04-09T13:27:24.910Z,18.900
2023-04-09T13:28:20.893Z,19.100
2023-04-09T13:29:29.089Z,19.200
2023-04-09T13:30:23.242Z,19.300
2023-04-09T13:31:22.557Z,19.300
2023-04-09T13:32:31.092Z,19.200
2023-04-09T13:33:28.741Z,19.050
2023-04-09T13:34:23.895Z,19.000
2023-04-09T13:35:24.988Z,18.900
2023-04-09T13:36:30.827Z,19.100
2023-04-09T13:37:25.541Z,19.300
2023-04-09T13:39:33.440Z,19.100
2023-04-09T13:40:28.486Z,19.100
2023-04-09T13:41:23.013Z,19.200
2023-04-09T13:43:31.445Z,19.600
2023-04-09T13:44:25.067Z,19.400
2023-04-09T13:45:25.214Z,19.100
2023-04-09T13:47:27.042Z,19.400
2023-04-09T13:48:23.532Z,19.700
2023-04-09T13:49:29.072Z,19.800
2023-04-09T13:50:31.673Z,19.900
2023-04-09T13:52:21.130Z,20.100
2023-04-09T13:53:23.902Z,20.300
2023-04-09T13:54:20.008Z,20.300
2023-04-09T13:55:22.983Z,20.100
2023-04-09T13:56:35.475Z,20.550
2023-04-09T13:57:30.578Z,20.600
2023-04-09T13:58:24.926Z,20.900